Time;durP1;ratioP1;P1;durP2;ratioP2;P2;SDS_P1;SDS_P2;PMS_P1;PMS_P2;Temp;Humidity;BMP_temperature;BMP_pressure;BME280_temperature;BME280_humidity;BME280_pressure;Samples;Min_cycle;Max_cycle;Signal;HPM_P1;HPM_P2
2022/11/29 00:01:57;;;;;;;31.05;17.75;;;5.00;99.90;;;;;;5011532;28;20029;-42
2022/11/29 00:04:22;;;;;;;26.42;15.93;;;5.00;99.90;;;;;;5010957;28;20077;-41
2022/11/29 00:06:47;;;;;;;29.08;17.35;;;5.00;99.90;;;;;;5010710;28;20022;-41
2022/11/29 00:09:13;;;;;;;26.33;16.45;;;4.90;99.90;;;;;;5010197;28;20025;-41
2022/11/29 00:14:26;;;;;;;28.98;17.27;;;5.00;99.90;;;;;;5010414;28;20029;-45
2022/11/29 00:16:54;;;;;;;29.75;17.48;;;4.90;99.90;;;;;;5010444;28;20030;-43
2022/11/29 00:19:20;;;;;;;33.58;18.58;;;5.00;99.90;;;;;;5009956;28;20395;-42
2022/11/29 00:21:45;;;;;;;31.92;18.60;;;5.00;99.90;;;;;;5010705;28;20533;-42
2022/11/29 00:24:11;;;;;;;36.20;19.88;;;5.00;99.90;;;;;;5010488;28;20108;-41
2022/11/29 00:26:37;;;;;;;33.85;18.25;;;5.00;99.90;;;;;;5010400;28;20021;-40
2022/11/29 00:29:03;;;;;;;32.50;18.38;;;5.00;99.90;;;;;;5008656;28;20048;-42
2022/11/29 00:31:30;;;;;;;31.23;18.23;;;5.00;99.90;;;;;;5010130;28;20026;-41
2022/11/29 00:33:57;;;;;;;30.25;18.25;;;5.00;99.90;;;;;;5010015;28;20108;-41
2022/11/29 00:36:24;;;;;;;34.60;19.50;;;5.00;99.90;;;;;;5010250;28;20026;-40
2022/11/29 00:38:49;;;;;;;33.03;18.52;;;5.00;99.90;;;;;;5010226;28;20487;-40
2022/11/29 00:41:15;;;;;;;30.38;18.08;;;5.00;99.90;;;;;;5010170;28;20030;-41
2022/11/29 00:43:41;;;;;;;30.48;19.15;;;5.00;99.90;;;;;;5010342;28;20113;-41
2022/11/29 00:46:07;;;;;;;32.40;19.10;;;5.00;99.90;;;;;;5010233;28;20033;-44
2022/11/29 00:48:33;;;;;;;38.50;20.23;;;5.00;99.90;;;;;;5010197;28;20022;-41
2022/11/29 00:50:59;;;;;;;32.95;19.65;;;5.00;99.90;;;;;;5008316;28;20052;-42
2022/11/29 00:53:24;;;;;;;31.52;20.58;;;5.00;99.90;;;;;;5008524;28;20026;-41
2022/11/29 00:55:51;;;;;;;33.75;19.08;;;5.00;99.90;;;;;;5008407;28;20088;-41
2022/11/29 00:58:17;;;;;;;35.72;21.70;;;5.00;99.90;;;;;;5010115;28;20442;-41
2022/11/29 01:00:43;;;;;;;36.85;21.30;;;5.00;99.90;;;;;;5009700;28;20104;-41
2022/11/29 01:03:09;;;;;;;39.22;21.33;;;5.00;99.90;;;;;;5009742;28;20523;-41
2022/11/29 01:05:34;;;;;;;38.92;22.90;;;5.00;99.90;;;;;;5009793;28;20045;-41
2022/11/29 01:08:00;;;;;;;39.78;21.08;;;5.00;99.90;;;;;;5009486;28;20511;-41
2022/11/29 01:10:26;;;;;;;31.17;18.67;;;5.00;99.90;;;;;;5009260;28;20105;-41
2022/11/29 01:12:51;;;;;;;35.50;21.13;;;5.00;99.90;;;;;;5009210;28;20061;-42
2022/11/29 01:15:17;;;;;;;33.63;20.08;;;5.00;99.90;;;;;;5009344;28;20491;-42
2022/11/29 01:17:42;;;;;;;41.45;23.17;;;5.00;99.90;;;;;;5009587;28;20037;-42
2022/11/29 01:20:10;;;;;;;36.17;20.75;;;5.10;99.90;;;;;;5009086;28;20036;-42
2022/11/29 01:22:37;;;;;;;34.05;20.85;;;5.00;99.90;;;;;;5007494;28;20018;-42
2022/11/29 01:25:04;;;;;;;35.03;20.63;;;5.00;99.90;;;;;;5009203;28;20406;-41
2022/11/29 01:27:30;;;;;;;37.97;20.35;;;5.00;99.90;;;;;;5009542;28;20073;-42
2022/11/29 01:29:55;;;;;;;38.17;19.98;;;5.00;99.90;;;;;;5009056;28;20484;-41
2022/11/29 01:32:21;;;;;;;38.60;21.60;;;5.10;99.90;;;;;;5009748;28;20100;-42
2022/11/29 01:34:46;;;;;;;38.92;21.80;;;5.10;99.90;;;;;;5009252;28;20037;-43
2022/11/29 01:37:12;;;;;;;37.20;21.27;;;5.10;99.90;;;;;;5008090;28;20025;-44
2022/11/29 01:39:38;;;;;;;35.35;20.70;;;5.00;99.90;;;;;;5007497;28;20541;-42
2022/11/29 01:42:03;;;;;;;37.08;21.05;;;5.10;99.90;;;;;;5009029;28;20026;-43
2022/11/29 01:44:29;;;;;;;33.75;19.50;;;5.00;99.90;;;;;;5009223;28;20422;-42
2022/11/29 01:46:55;;;;;;;32.65;18.92;;;5.00;99.90;;;;;;5009276;28;20025;-40
2022/11/29 01:49:31;;;;;;;35.72;19.52;;;5.00;99.90;;;;;;5008873;28;20380;-40
2022/11/29 01:52:19;;;;;;;40.03;21.40;;;5.00;99.90;;;;;;5007973;28;20034;-41
2022/11/29 01:54:48;;;;;;;32.38;18.83;;;5.10;99.90;;;;;;5008660;28;20037;-41
2022/11/29 01:57:14;;;;;;;35.40;19.63;;;5.10;99.90;;;;;;5004459;28;20080;-41
2022/11/29 01:59:46;;;;;;;35.50;20.27;;;5.10;99.90;;;;;;4988835;28;20400;-41
2022/11/29 02:02:14;;;;;;;35.70;21.77;;;5.10;99.90;;;;;;4989001;28;20398;-41
2022/11/29 02:04:43;;;;;;;35.55;20.25;;;5.10;99.90;;;;;;4989295;28;20023;-40
2022/11/29 02:07:09;;;;;;;35.70;19.83;;;5.10;99.90;;;;;;4989482;28;20436;-40
2022/11/29 02:09:34;;;;;;;33.55;19.75;;;5.10;99.90;;;;;;4987378;28;20030;-40
2022/11/29 02:12:09;;;;;;;34.97;20.55;;;5.10;99.90;;;;;;4989290;28;20061;-40
2022/11/29 02:14:43;;;;;;;35.28;20.15;;;5.10;99.90;;;;;;4989533;28;20027;-41
2022/11/29 02:17:29;;;;;;;35.50;19.42;;;5.10;99.90;;;;;;4989682;28;20435;-40
2022/11/29 02:20:32;;;;;;;33.17;19.10;;;5.10;99.90;;;;;;4988615;28;20050;-40
2022/11/29 02:23:30;;;;;;;37.10;20.55;;;5.10;99.90;;;;;;4989130;28;20392;-41
2022/11/29 02:26:23;;;;;;;34.08;20.92;;;5.10;99.90;;;;;;4987657;28;20113;-42
2022/11/29 02:29:24;;;;;;;37.58;20.80;;;5.10;99.90;;;;;;4989014;28;20034;-40
2022/11/29 02:32:17;;;;;;;35.42;20.05;;;5.10;99.90;;;;;;4988968;28;20033;-41
2022/11/29 02:34:52;;;;;;;37.10;19.77;;;5.10;99.90;;;;;;4990616;28;20060;-40
2022/11/29 02:37:41;;;;;;;33.38;19.38;;;5.10;99.90;;;;;;4991362;28;20018;-42
2022/11/29 02:40:30;;;;;;;34.08;19.88;;;5.10;99.90;;;;;;4992198;28;20031;-40
2022/11/29 02:43:20;;;;;;;37.03;21.92;;;5.10;99.90;;;;;;4992679;28;20062;-40
2022/11/29 02:46:05;;;;;;;36.25;19.67;;;5.10;99.90;;;;;;4993414;28;20034;-40
2022/11/29 02:48:50;;;;;;;37.25;21.83;;;5.10;99.90;;;;;;4993211;28;20030;-43
2022/11/29 02:51:21;;;;;;;34.75;20.60;;;5.00;99.90;;;;;;4992245;28;20145;-43
2022/11/29 02:53:57;;;;;;;38.63;21.38;;;5.00;99.90;;;;;;4992770;28;20235;-42
2022/11/29 02:56:41;;;;;;;39.50;21.67;;;5.10;99.90;;;;;;4992550;28;20022;-41
2022/11/29 02:59:23;;;;;;;35.22;20.23;;;5.10;99.90;;;;;;4992471;28;20101;-41
2022/11/29 03:02:18;;;;;;;35.67;20.40;;;5.10;99.90;;;;;;4992662;28;20027;-42
2022/11/29 03:05:08;;;;;;;43.78;22.45;;;5.10;99.90;;;;;;5004141;28;20033;-40
2022/11/29 03:07:57;;;;;;;40.42;20.92;;;5.10;99.90;;;;;;5011791;28;20423;-41
2022/11/29 03:10:26;;;;;;;39.58;21.55;;;5.00;99.90;;;;;;5011465;28;20026;-41
2022/11/29 03:12:53;;;;;;;42.58;22.25;;;5.00;99.90;;;;;;5011511;28;20506;-41
2022/11/29 03:15:37;;;;;;;41.80;22.63;;;5.00;99.90;;;;;;5010321;28;20116;-41
2022/11/29 03:18:33;;;;;;;35.25;21.25;;;5.00;99.90;;;;;;5010131;28;20060;-40
2022/11/29 03:21:38;;;;;;;38.83;21.33;;;5.10;99.90;;;;;;5009202;28;20076;-41
2022/11/29 03:24:33;;;;;;;41.88;23.10;;;5.00;99.90;;;;;;5009917;28;20030;-40
2022/11/29 03:27:06;;;;;;;33.22;20.55;;;5.00;99.90;;;;;;5011256;28;20048;-41
2022/11/29 03:29:39;;;;;;;37.83;21.25;;;5.00;99.90;;;;;;5011123;28;20029;-41
2022/11/29 03:32:24;;;;;;;36.97;22.60;;;5.00;99.90;;;;;;5011320;28;20030;-41
2022/11/29 03:35:05;;;;;;;35.75;20.92;;;4.90;99.90;;;;;;5009884;28;20049;-40
2022/11/29 03:37:52;;;;;;;32.90;19.83;;;5.00;99.90;;;;;;5011502;28;20033;-39
2022/11/29 03:40:32;;;;;;;44.72;24.17;;;5.00;99.90;;;;;;5009821;28;20060;-40
2022/11/29 03:43:05;;;;;;;39.47;22.08;;;5.00;99.90;;;;;;5011159;28;20022;-40
2022/11/29 03:45:45;;;;;;;36.60;22.00;;;5.00;99.90;;;;;;5011023;28;20033;-40
2022/11/29 03:48:15;;;;;;;38.35;21.95;;;5.00;99.90;;;;;;5011087;28;20507;-41
2022/11/29 03:50:47;;;;;;;;;;;5.00;99.90;;;;;;5011101;28;20037;-40
2022/11/29 03:53:39;;;;;;;37.40;20.25;;;5.00;99.90;;;;;;5010964;28;20294;-40
2022/11/29 03:56:27;;;;;;;39.28;22.23;;;5.00;99.90;;;;;;5009629;28;20065;-40
2022/11/29 03:59:11;;;;;;;42.00;23.95;;;5.00;99.90;;;;;;5010910;28;20248;-41
2022/11/29 04:01:54;;;;;;;39.17;21.45;;;4.90;99.90;;;;;;5008712;28;20021;-40
2022/11/29 04:04:40;;;;;;;37.67;21.60;;;5.00;99.90;;;;;;5009367;28;20025;-40
2022/11/29 04:07:34;;;;;;;42.13;22.00;;;4.90;99.90;;;;;;4996410;28;20073;-40
2022/11/29 04:10:15;;;;;;;43.03;22.85;;;4.90;99.90;;;;;;4990710;28;20438;-41
2022/11/29 04:13:02;;;;;;;38.30;21.90;;;4.90;99.90;;;;;;4991031;28;20062;-42
2022/11/29 04:15:57;;;;;;;41.33;23.50;;;5.00;99.90;;;;;;4991025;28;20034;-40
2022/11/29 04:19:00;;;;;;;39.45;21.77;;;4.90;99.90;;;;;;4990891;28;20026;-41
2022/11/29 04:21:48;;;;;;;39.85;21.98;;;4.90;99.90;;;;;;4990253;28;20022;-40
2022/11/29 04:24:23;;;;;;;43.33;22.20;;;4.90;99.90;;;;;;4990823;28;20022;-40
2022/11/29 04:27:07;;;;;;;38.95;23.10;;;4.90;99.90;;;;;;4990839;28;20022;-42
2022/11/29 04:29:59;;;;;;;40.03;22.08;;;4.90;99.90;;;;;;4990386;28;20026;-42
2022/11/29 04:32:45;;;;;;;40.50;22.02;;;4.90;99.90;;;;;;4990768;28;20030;-39
2022/11/29 04:35:37;;;;;;;37.97;21.30;;;4.90;99.90;;;;;;5007833;28;20061;-40
2022/11/29 04:39:03;;;;;;;44.22;23.20;;;4.90;99.90;;;;;;5010578;28;20026;-39
2022/11/29 04:41:40;;;;;;;38.35;22.20;;;5.00;99.90;;;;;;5017825;28;20026;-39
2022/11/29 04:44:14;;;;;;;41.70;22.90;;;5.00;99.90;;;;;;5011986;28;20542;-40
2022/11/29 04:46:52;;;;;;;43.10;23.85;;;5.00;99.90;;;;;;5011909;28;20048;-40
2022/11/29 04:49:37;;;;;;;42.55;23.77;;;5.00;99.90;;;;;;5009146;28;20029;-39
2022/11/29 04:52:39;;;;;;;41.65;23.00;;;5.00;99.90;;;;;;5009000;28;20045;-40
2022/11/29 04:55:36;;;;;;;38.17;21.42;;;4.90;99.90;;;;;;5009776;28;20029;-39
2022/11/29 04:58:22;;;;;;;47.40;25.20;;;5.00;99.90;;;;;;5009203;28;20026;-39
2022/11/29 05:01:19;;;;;;;40.33;22.77;;;4.90;99.90;;;;;;5009230;28;20061;-39
2022/11/29 05:04:03;;;;;;;47.42;22.85;;;4.90;99.90;;;;;;5008343;28;20034;-40
2022/11/29 05:06:37;;;;;;;43.05;22.60;;;4.90;99.90;;;;;;5009609;28;20049;-39
2022/11/29 05:09:31;;;;;;;45.38;24.02;;;4.90;99.90;;;;;;5009404;28;20065;-40
2022/11/29 05:12:21;;;;;;;41.53;21.58;;;4.90;99.90;;;;;;5009322;28;20034;-39
2022/11/29 05:15:18;;;;;;;49.67;24.43;;;4.90;99.90;;;;;;5008066;28;20022;-40
2022/11/29 05:18:24;;;;;;;43.42;23.20;;;4.90;99.90;;;;;;4990058;28;20030;-39
2022/11/29 05:20:54;;;;;;;48.10;24.70;;;4.90;99.90;;;;;;4995818;28;20061;-39
2022/11/29 05:23:47;;;;;;;41.60;21.40;;;4.90;99.90;;;;;;5009620;28;20022;-40
2022/11/29 05:26:26;;;;;;;48.60;23.92;;;4.90;99.90;;;;;;5009161;28;20109;-39
2022/11/29 05:29:03;;;;;;;40.10;22.70;;;4.90;99.90;;;;;;5009676;28;20379;-39
2022/11/29 05:31:39;;;;;;;44.22;23.55;;;4.90;99.90;;;;;;5008675;28;20045;-39
2022/11/29 05:34:32;;;;;;;43.88;24.27;;;5.00;99.90;;;;;;5009095;28;20034;-39
2022/11/29 05:37:14;;;;;;;46.95;25.42;;;5.00;99.90;;;;;;5009287;28;20562;-39
2022/11/29 05:39:54;;;;;;;45.33;25.23;;;5.00;99.90;;;;;;5009159;28;20291;-38
2022/11/29 05:42:54;;;;;;;41.72;22.08;;;5.00;99.90;;;;;;5009194;28;20459;-38
2022/11/29 05:45:41;;;;;;;42.95;25.15;;;5.00;99.90;;;;;;5009232;28;20026;-38
2022/11/29 05:48:45;;;;;;;50.75;25.10;;;5.00;99.90;;;;;;5008984;28;20029;-39
2022/11/29 05:51:28;;;;;;;45.38;24.02;;;5.00;99.90;;;;;;5006751;28;20038;-40
2022/11/29 05:54:26;;;;;;;45.05;24.58;;;4.90;99.90;;;;;;5008910;28;20069;-39
2022/11/29 05:57:13;;;;;;;50.00;24.95;;;5.00;99.90;;;;;;5008734;28;20049;-39
2022/11/29 05:59:40;;;;;;;47.28;25.55;;;4.90;99.90;;;;;;5008452;28;20021;-39
2022/11/29 06:02:55;;;;;;;44.65;24.25;;;4.90;99.90;;;;;;5007645;28;20029;-39
2022/11/29 06:05:50;;;;;;;51.35;24.30;;;4.90;99.90;;;;;;4970157;28;20046;-40
2022/11/29 06:08:41;;;;;;;49.15;25.77;;;4.90;99.90;;;;;;5015809;28;20674;-40
2022/11/29 06:11:24;;;;;;;44.30;24.35;;;4.90;99.90;;;;;;5010257;28;20017;-39
2022/11/29 06:14:12;;;;;;;45.55;24.58;;;4.90;99.90;;;;;;5010131;28;20201;-40
2022/11/29 06:17:17;;;;;;;46.60;25.75;;;4.90;99.90;;;;;;5001144;28;20121;-41
2022/11/29 06:19:51;;;;;;;50.78;26.50;;;4.90;99.90;;;;;;5008647;28;20037;-41
2022/11/29 06:22:29;;;;;;;46.47;26.58;;;4.90;99.90;;;;;;5011293;28;20022;-40
2022/11/29 06:25:29;;;;;;;54.38;27.88;;;4.90;99.90;;;;;;5012210;28;20503;-39
2022/11/29 06:28:03;;;;;;;49.28;26.40;;;4.90;99.90;;;;;;5004967;28;20041;-39
2022/11/29 06:30:48;;;;;;;50.75;27.50;;;4.90;99.90;;;;;;5012041;28;20032;-40
2022/11/29 06:33:26;;;;;;;53.80;27.90;;;4.90;99.90;;;;;;5001944;28;20104;-39
2022/11/29 06:36:29;;;;;;;48.95;26.73;;;4.90;99.90;;;;;;5011875;28;20028;-39
2022/11/29 06:38:55;;;;;;;50.42;26.85;;;4.90;99.90;;;;;;5009945;28;20022;-39
2022/11/29 06:41:22;;;;;;;53.00;26.75;;;4.90;99.90;;;;;;5010978;28;20100;-39
2022/11/29 06:43:49;;;;;;;48.38;26.90;;;4.90;99.90;;;;;;5011073;28;20022;-40
2022/11/29 06:46:32;;;;;;;51.58;25.73;;;4.90;99.90;;;;;;5012225;28;20498;-39
2022/11/29 06:49:07;;;;;;;44.97;25.27;;;4.90;99.90;;;;;;5009185;28;20037;-40
2022/11/29 06:51:50;;;;;;;50.40;28.05;;;4.90;99.90;;;;;;5011856;28;20497;-40
2022/11/29 06:54:34;;;;;;;56.10;28.33;;;4.90;99.90;;;;;;5011366;28;20407;-40
2022/11/29 06:57:15;;;;;;;53.63;27.33;;;5.00;99.90;;;;;;5008645;28;20029;-42
2022/11/29 06:59:50;;;;;;;51.58;27.27;;;5.00;99.90;;;;;;5008491;28;20385;-40
2022/11/29 07:02:36;;;;;;;54.00;28.83;;;4.90;99.90;;;;;;5010862;28;20080;-39
2022/11/29 07:05:10;;;;;;;51.38;27.10;;;4.90;99.90;;;;;;5008998;28;20022;-40
2022/11/29 07:07:35;;;;;;;56.20;28.55;;;4.90;99.90;;;;;;5011415;28;20029;-40
2022/11/29 07:10:04;;;;;;;48.53;27.15;;;4.90;99.90;;;;;;5011034;28;20560;-39
2022/11/29 07:12:30;;;;;;;55.13;28.92;;;5.00;99.90;;;;;;5009900;28;20030;-38
2022/11/29 07:14:56;;;;;;;56.63;28.45;;;5.00;99.90;;;;;;5011053;28;20029;-39
2022/11/29 07:17:37;;;;;;;55.88;28.85;;;4.90;99.90;;;;;;5009755;28;20026;-39
2022/11/29 07:20:14;;;;;;;55.47;28.35;;;4.90;99.90;;;;;;5007756;28;20018;-38
2022/11/29 07:23:13;;;;;;;57.75;29.45;;;4.90;99.90;;;;;;5008749;28;20025;-40
2022/11/29 07:26:07;;;;;;;63.35;29.83;;;4.90;99.90;;;;;;5010574;28;20037;-40
2022/11/29 07:28:59;;;;;;;54.40;29.13;;;4.90;99.90;;;;;;5010312;28;20028;-39
2022/11/29 07:31:43;;;;;;;53.17;28.08;;;4.90;99.90;;;;;;5008665;28;20224;-40
2022/11/29 07:34:23;;;;;;;57.65;29.55;;;4.90;99.90;;;;;;5009330;28;20096;-41
2022/11/29 07:37:00;;;;;;;54.72;27.38;;;4.90;99.90;;;;;;5009403;28;20379;-39
2022/11/29 07:39:50;;;;;;;56.85;29.27;;;4.90;99.90;;;;;;5008367;28;20026;-39
2022/11/29 07:42:34;;;;;;;51.22;28.00;;;4.90;99.90;;;;;;5009963;28;20034;-39
2022/11/29 07:45:19;;;;;;;54.13;28.42;;;4.90;99.90;;;;;;5007453;28;20411;-39
2022/11/29 07:47:45;;;;;;;56.20;29.98;;;5.00;99.90;;;;;;5009010;28;20044;-40
2022/11/29 07:50:11;;;;;;;60.15;30.05;;;5.00;99.90;;;;;;5010010;28;20101;-40
2022/11/29 07:52:36;;;;;;;55.00;28.75;;;5.00;99.90;;;;;;5010007;28;20372;-41
2022/11/29 07:55:03;;;;;;;61.85;31.85;;;5.00;99.90;;;;;;4996244;28;20159;-40
2022/11/29 07:57:29;;;;;;;62.58;31.98;;;5.00;99.90;;;;;;5007634;28;20391;-40
2022/11/29 07:59:54;;;;;;;64.18;32.85;;;5.00;99.90;;;;;;5006822;28;20108;-41
2022/11/29 08:02:30;;;;;;;61.35;32.20;;;5.10;99.90;;;;;;5010177;28;20021;-40
2022/11/29 08:04:55;;;;;;;58.00;30.45;;;5.10;99.90;;;;;;5008176;28;20097;-40
2022/11/29 08:07:21;;;;;;;67.25;31.30;;;5.10;99.90;;;;;;5006515;28;20125;-39
2022/11/29 08:09:46;;;;;;;53.80;30.10;;;5.20;99.90;;;;;;5007768;28;20491;-41
2022/11/29 08:12:12;;;;;;;61.70;30.50;;;5.10;99.90;;;;;;5010033;28;20030;-40
2022/11/29 08:14:37;;;;;;;60.45;30.80;;;5.10;99.90;;;;;;5006511;28;20487;-40
2022/11/29 08:17:03;;;;;;;59.45;30.63;;;5.20;99.90;;;;;;5009143;28;20032;-40
2022/11/29 08:19:28;;;;;;;66.25;31.15;;;5.20;99.90;;;;;;5005977;28;20021;-40
2022/11/29 08:21:54;;;;;;;63.03;31.98;;;5.20;99.90;;;;;;5005489;28;20040;-40
2022/11/29 08:24:19;;;;;;;59.05;32.15;;;5.20;99.90;;;;;;5007098;28;20014;-40
2022/11/29 08:26:45;;;;;;;62.05;31.95;;;5.20;99.90;;;;;;5006416;28;20091;-40
2022/11/29 08:29:10;;;;;;;59.25;30.00;;;5.30;99.90;;;;;;5006697;28;20041;-40
2022/11/29 08:31:36;;;;;;;60.97;31.98;;;5.30;99.90;;;;;;5008379;28;20910;-40
2022/11/29 08:34:03;;;;;;;60.35;31.25;;;5.30;99.90;;;;;;5005734;28;20041;-40
2022/11/29 08:36:29;;;;;;;66.35;31.65;;;5.40;99.90;;;;;;5005288;28;20021;-40
2022/11/29 08:38:54;;;;;;;58.25;30.38;;;5.30;99.90;;;;;;5006029;28;20510;-40
2022/11/29 08:41:19;;;;;;;66.03;32.72;;;5.30;99.90;;;;;;5008462;28;20387;-40
2022/11/29 08:43:45;;;;;;;54.45;30.45;;;5.40;99.90;;;;;;5006572;28;20041;-40
2022/11/29 08:46:11;;;;;;;62.88;31.75;;;5.30;99.90;;;;;;5006026;28;20483;-40
2022/11/29 08:48:37;;;;;;;65.45;33.35;;;5.40;99.90;;;;;;5005859;28;20145;-40
2022/11/29 08:51:03;;;;;;;63.88;31.90;;;5.40;99.90;;;;;;5002919;28;20117;-40
2022/11/29 08:53:41;;;;;;;67.10;33.72;;;5.40;99.90;;;;;;5007355;28;20105;-40
2022/11/29 08:56:12;;;;;;;57.08;31.35;;;5.40;99.90;;;;;;5003031;28;20076;-39
2022/11/29 08:58:38;;;;;;;68.13;32.97;;;5.50;99.90;;;;;;5004325;28;20038;-39
2022/11/29 09:01:11;;;;;;;63.22;33.22;;;5.50;99.90;;;;;;5002870;28;20022;-39
2022/11/29 09:06:20;;;;;;;66.78;32.05;;;5.50;99.90;;;;;;5003656;28;20029;-39
2022/11/29 09:08:46;;;;;;;61.55;33.60;;;5.50;99.90;;;;;;5008113;28;20026;-39
2022/11/29 09:11:14;;;;;;;62.90;33.60;;;5.50;99.90;;;;;;5004076;28;20030;-39
2022/11/29 09:13:43;;;;;;;64.82;34.55;;;5.50;99.90;;;;;;5008787;28;20423;-39
2022/11/29 09:16:11;;;;;;;65.97;33.40;;;5.50;99.90;;;;;;4995923;28;20023;-39
2022/11/29 09:18:37;;;;;;;62.30;34.50;;;5.50;99.90;;;;;;4990363;28;20026;-40
2022/11/29 09:21:08;;;;;;;67.63;35.30;;;5.50;99.90;;;;;;4997563;28;20057;-39
2022/11/29 09:23:37;;;;;;;68.72;34.20;;;5.50;99.90;;;;;;5007230;28;20025;-44
2022/11/29 09:26:04;;;;;;;63.58;34.80;;;5.50;99.90;;;;;;5007640;28;20589;-40
2022/11/29 09:28:30;;;;;;;65.57;36.13;;;5.50;99.90;;;;;;5006966;28;20033;-45
2022/11/29 09:31:03;;;;;;;63.10;35.38;;;5.50;99.90;;;;;;5006567;28;20041;-40
2022/11/29 09:33:29;;;;;;;66.93;35.40;;;5.50;99.90;;;;;;5007316;28;20207;-40
2022/11/29 09:35:57;;;;;;;67.13;34.90;;;5.60;99.90;;;;;;4997024;28;20500;-39
2022/11/29 09:38:22;;;;;;;66.80;36.78;;;5.60;99.90;;;;;;4991521;28;20026;-40
2022/11/29 09:41:15;;;;;;;70.28;37.13;;;5.60;99.90;;;;;;4998359;28;20602;-39
2022/11/29 09:44:04;;;;;;;62.95;34.35;;;5.60;99.90;;;;;;5005403;28;20049;-42
2022/11/29 09:46:47;;;;;;;66.70;35.25;;;5.60;99.90;;;;;;5002169;28;20034;-40
2022/11/29 09:49:34;;;;;;;65.60;34.47;;;5.60;99.90;;;;;;4995978;28;20018;-39
2022/11/29 09:52:43;;;;;;;68.47;35.05;;;5.60;99.90;;;;;;5007119;28;20072;-40
2022/11/29 09:55:47;;;;;;;69.55;35.50;;;5.60;99.90;;;;;;5003229;28;20080;-41
2022/11/29 09:58:20;;;;;;;69.43;35.35;;;5.70;99.90;;;;;;5000670;28;20494;-40
2022/11/29 10:00:50;;;;;;;68.05;35.60;;;5.70;99.90;;;;;;4991790;28;20034;-40
2022/11/29 10:03:32;;;;;;;65.38;33.55;;;5.70;99.90;;;;;;4987630;28;20368;-39
2022/11/29 10:06:04;;;;;;;74.47;36.92;;;5.80;99.90;;;;;;4989187;28;20395;-40
2022/11/29 10:08:35;;;;;;;60.08;34.58;;;5.80;99.90;;;;;;5006848;28;20034;-40
2022/11/29 10:11:10;;;;;;;;;;;5.80;99.90;;;;;;4998345;28;20023;-40
2022/11/29 10:13:39;;;;;;;66.80;36.42;;;5.80;99.90;;;;;;4991459;28;19916;-40
2022/11/29 10:16:14;;;;;;;67.32;35.60;;;5.80;99.90;;;;;;5004424;28;20034;-40
2022/11/29 10:18:58;;;;;;;72.10;37.47;;;5.80;99.90;;;;;;5003596;28;20034;-40
2022/11/29 10:21:31;;;;;;;63.97;34.42;;;5.80;99.90;;;;;;5003815;28;20037;-40
2022/11/29 10:24:02;;;;;;;65.75;34.42;;;5.80;99.90;;;;;;5005015;28;20053;-40
2022/11/29 10:26:28;;;;;;;64.65;32.95;;;5.80;99.90;;;;;;5004874;28;20032;-40
2022/11/29 10:28:56;;;;;;;64.75;33.28;;;5.80;99.90;;;;;;5006177;28;20037;-40
2022/11/29 10:31:22;;;;;;;66.55;35.35;;;5.80;99.90;;;;;;5003678;28;20025;-40
2022/11/29 10:33:48;;;;;;;61.83;33.30;;;5.80;99.90;;;;;;5002853;28;20018;-40
2022/11/29 10:36:35;;;;;;;63.38;35.28;;;5.80;99.90;;;;;;5005141;28;20360;-40
2022/11/29 10:39:04;;;;;;;61.85;34.92;;;5.80;99.90;;;;;;5005352;28;20386;-39
2022/11/29 10:41:30;;;;;;;66.32;35.70;;;5.80;99.90;;;;;;5004667;28;20053;-40
2022/11/29 10:43:58;;;;;;;73.22;35.88;;;5.80;99.90;;;;;;5007203;28;20049;-40
2022/11/29 10:46:29;;;;;;;68.55;34.85;;;5.80;99.90;;;;;;5006752;28;20586;-40
2022/11/29 10:48:58;;;;;;;64.25;34.33;;;5.70;99.90;;;;;;5004746;28;20069;-40
2022/11/29 10:51:23;;;;;;;64.35;34.60;;;5.80;99.90;;;;;;5006733;28;20060;-39
2022/11/29 10:53:53;;;;;;;61.03;32.95;;;5.80;99.90;;;;;;5004896;28;20045;-40
2022/11/29 10:56:29;;;;;;;60.72;32.80;;;5.90;99.90;;;;;;5006652;28;20026;-40
2022/11/29 10:59:08;;;;;;;58.88;32.88;;;5.90;99.90;;;;;;5010953;28;20049;-40
2022/11/29 11:01:42;;;;;;;64.95;35.28;;;5.90;99.90;;;;;;4996205;28;20036;-40
2022/11/29 11:04:14;;;;;;;58.45;32.88;;;5.90;99.90;;;;;;5008227;28;20029;-40
2022/11/29 11:06:52;;;;;;;62.83;34.88;;;5.90;99.90;;;;;;5008106;28;20022;-40
2022/11/29 11:09:36;;;;;;;63.92;34.03;;;6.00;99.90;;;;;;5006274;28;20080;-40
2022/11/29 11:12:24;;;;;;;62.17;34.67;;;6.00;99.90;;;;;;5006455;28;20022;-40
2022/11/29 11:14:50;;;;;;;67.90;34.67;;;6.00;99.90;;;;;;5008057;28;20099;-40
2022/11/29 11:17:31;;;;;;;71.97;38.05;;;6.00;99.90;;;;;;5007767;28;20742;-40
2022/11/29 11:20:04;;;;;;;63.70;34.22;;;6.00;99.90;;;;;;5007796;28;20038;-41
2022/11/29 11:22:32;;;;;;;64.55;34.40;;;6.10;99.90;;;;;;5005015;28;20014;-40
2022/11/29 11:25:01;;;;;;;60.92;34.10;;;6.10;99.90;;;;;;5004738;28;20212;-40
2022/11/29 11:27:29;;;;;;;64.78;34.92;;;6.20;99.90;;;;;;5010111;28;20242;-40
2022/11/29 11:29:55;;;;;;;63.10;34.58;;;6.20;99.90;;;;;;5006999;28;20034;-40
2022/11/29 11:32:21;;;;;;;65.22;34.53;;;6.20;99.90;;;;;;5001906;28;20041;-40
2022/11/29 11:34:54;;;;;;;69.35;35.35;;;6.10;99.90;;;;;;5010162;28;20084;-40
2022/11/29 11:37:30;;;;;;;58.55;32.60;;;6.10;99.90;;;;;;4990714;28;20488;-40
2022/11/29 11:40:18;;;;;;;60.92;34.33;;;6.10;99.90;;;;;;4990406;28;20030;-41
2022/11/29 11:42:43;;;;;;;63.63;34.17;;;6.10;99.90;;;;;;5009709;28;20034;-40
2022/11/29 11:45:09;;;;;;;66.15;36.80;;;6.20;99.90;;;;;;4991169;28;20026;-42
2022/11/29 11:47:43;;;;;;;70.55;36.38;;;6.20;99.90;;;;;;4990188;28;20038;-42
2022/11/29 11:50:15;;;;;;;63.85;32.90;;;6.20;99.90;;;;;;4989074;28;20030;-38
2022/11/29 11:52:47;;;;;;;59.45;32.65;;;6.30;99.90;;;;;;4990409;28;20137;-40
2022/11/29 11:55:35;;;;;;;60.90;32.17;;;6.30;99.90;;;;;;4990250;28;20496;-39
2022/11/29 11:58:11;;;;;;;61.00;34.17;;;6.30;99.90;;;;;;4990612;28;20063;-39
2022/11/29 12:00:45;;;;;;;59.88;33.67;;;6.30;99.90;;;;;;5001651;28;20022;-40
2022/11/29 12:03:24;;;;;;;65.35;34.72;;;6.30;99.90;;;;;;5003950;28;20029;-40
2022/11/29 12:05:52;;;;;;;69.30;36.10;;;6.30;99.90;;;;;;5006727;28;20526;-38
2022/11/29 12:08:18;;;;;;;63.08;36.33;;;6.30;99.90;;;;;;5006921;28;20022;-39
2022/11/29 12:10:47;;;;;;;67.20;34.80;;;6.30;99.90;;;;;;5002943;28;20100;-39
2022/11/29 12:13:22;;;;;;;66.72;34.83;;;6.30;99.90;;;;;;5007578;28;20030;-38
2022/11/29 12:15:49;;;;;;;67.30;35.35;;;6.30;99.90;;;;;;5006655;28;20125;-40
2022/11/29 12:18:27;;;;;;;69.60;37.03;;;6.30;99.90;;;;;;5004999;28;20253;-39
2022/11/29 12:21:20;;;;;;;68.32;33.95;;;6.30;99.90;;;;;;5004603;28;20498;-39
2022/11/29 12:23:53;;;;;;;63.65;32.50;;;6.30;99.90;;;;;;5006108;28;20026;-39
2022/11/29 12:26:27;;;;;;;66.43;34.33;;;6.30;99.90;;;;;;5008040;28;20475;-39
2022/11/29 12:28:52;;;;;;;59.97;34.10;;;6.30;99.90;;;;;;5004317;28;20067;-39
2022/11/29 12:31:39;;;;;;;65.50;34.65;;;6.20;99.90;;;;;;5004747;28;20053;-39
2022/11/29 12:34:20;;;;;;;64.68;34.08;;;6.10;99.90;;;;;;5004135;28;20030;-40
2022/11/29 12:36:52;;;;;;;;;;;6.20;99.90;;;;;;5006474;28;20040;-40
2022/11/29 12:39:32;;;;;;;65.35;34.35;;;6.10;99.90;;;;;;5005428;28;19909;-39
2022/11/29 12:42:10;;;;;;;59.47;32.60;;;6.20;99.90;;;;;;5003837;28;20030;-40
2022/11/29 12:44:47;;;;;;;64.03;34.28;;;6.20;99.90;;;;;;5007361;28;20021;-39
2022/11/29 12:47:18;;;;;;;71.07;38.00;;;6.20;99.90;;;;;;5003052;28;20025;-39
2022/11/29 12:50:09;;;;;;;69.97;38.33;;;6.20;99.90;;;;;;5004551;28;20030;-40
2022/11/29 12:53:13;;;;;;;69.43;35.97;;;6.20;99.90;;;;;;5004973;28;20032;-39
2022/11/29 12:55:46;;;;;;;67.95;34.90;;;6.20;99.90;;;;;;5004679;28;20526;-40
2022/11/29 12:58:36;;;;;;;69.22;35.95;;;6.20;99.90;;;;;;5006197;28;20102;-39
2022/11/29 13:01:28;;;;;;;67.85;36.40;;;6.20;99.90;;;;;;5005282;28;20478;-40
2022/11/29 13:04:20;;;;;;;66.07;36.80;;;6.20;99.90;;;;;;5006920;28;20484;-40
2022/11/29 13:07:20;;;;;;;72.45;38.30;;;6.10;99.90;;;;;;5005375;28;20415;-40
2022/11/29 13:10:18;;;;;;;75.32;37.50;;;6.10;99.90;;;;;;5004325;28;20105;-39
2022/11/29 13:12:58;;;;;;;71.03;37.83;;;6.10;99.90;;;;;;5004049;28;20054;-40
2022/11/29 13:15:39;;;;;;;70.22;36.70;;;6.10;99.90;;;;;;5005034;28;20040;-39
2022/11/29 13:18:23;;;;;;;71.38;37.60;;;6.10;99.90;;;;;;5005627;28;20018;-41
2022/11/29 13:21:01;;;;;;;71.93;37.97;;;6.10;99.90;;;;;;5006318;28;20503;-40
2022/11/29 13:23:32;;;;;;;75.53;40.00;;;6.10;99.90;;;;;;5007885;28;20449;-40
2022/11/29 13:26:00;;;;;;;76.32;40.75;;;6.10;99.90;;;;;;5003844;28;20104;-40
2022/11/29 13:28:36;;;;;;;81.40;40.60;;;6.10;99.90;;;;;;5008024;28;20037;-39
2022/11/29 13:31:05;;;;;;;78.50;39.55;;;6.10;99.90;;;;;;5004795;28;20026;-40
2022/11/29 13:33:52;;;;;;;72.55;39.40;;;6.10;99.90;;;;;;5007990;28;20037;-39